Hyner, Pennsylvania
Current Conditions -  °F | °C
As of 12:15 PM on Sunday 23 Nov 2014 (Local Time) from KN38 Reporting Station
Broken Clouds Broken Clouds  
Wind Chill: 44°   Ceiling: 9500
Heat Index: 46°   Visibility: 10mi
Dew Point: 34°   Wind: 6mph
Humidity: 62%   Direction: 210°SSW
Pressure: 30.07"   Gusts: NA
Location:  41.33°N, 77.64°W
Report Text: KN38 231715Z AUTO 21005KT 10SM SCT080 BKN095 BKN110 08/01 A3007 RMK AO2
Loading
Personal Weather Stations






























Interactive Weather Map New forecast layout! Learn more

10-Day Weather Forecast

Advertisements
Track Severe Weather on mobile